Time;durP1;ratioP1;P1;durP2;ratioP2;P2;SDS_P1;SDS_P2;PMS_P1;PMS_P2;Temp;Humidity;BMP_temperature;BMP_pressure;BME280_temperature;BME280_humidity;BME280_pressure;Samples;Min_cycle;Max_cycle;Signal;HPM_P1;HPM_P2
2021/06/01 00:01:24;;;;;;;13.65;12.02;;;13.20;91.80;;;;;;5110741;28;20040;-67
2021/06/01 00:03:50;;;;;;;15.15;12.63;;;13.20;91.70;;;;;;5110622;28;20398;-67
2021/06/01 00:06:16;;;;;;;14.82;12.95;;;13.10;91.80;;;;;;5110817;28;20085;-67
2021/06/01 00:08:45;;;;;;;15.93;13.07;;;13.10;92.00;;;;;;5110638;28;20035;-67
2021/06/01 00:11:11;;;;;;;13.82;12.27;;;13.10;92.40;;;;;;5110576;28;20067;-67
2021/06/01 00:13:38;;;;;;;14.43;12.43;;;13.00;92.10;;;;;;5110496;28;20548;-67
2021/06/01 00:16:05;;;;;;;13.68;12.27;;;12.90;92.30;;;;;;5110665;28;20074;-67
2021/06/01 00:18:31;;;;;;;15.68;12.07;;;12.90;92.40;;;;;;5110610;28;20097;-67
2021/06/01 00:20:57;;;;;;;14.57;12.43;;;12.80;92.40;;;;;;5110572;28;20035;-67
2021/06/01 00:23:23;;;;;;;15.82;12.68;;;12.80;92.20;;;;;;5093983;28;20100;-67
2021/06/01 00:25:49;;;;;;;13.70;12.30;;;12.80;92.30;;;;;;5114903;28;20177;-67
2021/06/01 00:28:15;;;;;;;14.10;10.98;;;12.80;92.40;;;;;;5114630;28;20062;-67
2021/06/01 00:30:41;;;;;;;13.02;11.63;;;12.80;92.30;;;;;;5114670;28;20047;-67
2021/06/01 00:33:09;;;;;;;12.50;11.13;;;12.70;92.20;;;;;;5114472;28;20489;-67
2021/06/01 00:35:35;;;;;;;13.45;10.90;;;12.70;92.30;;;;;;5096578;28;20104;-67
2021/06/01 00:38:02;;;;;;;15.55;12.45;;;12.70;92.20;;;;;;5114449;28;20073;-67
2021/06/01 00:40:28;;;;;;;15.65;11.98;;;12.70;92.20;;;;;;5114243;28;20048;-67
2021/06/01 00:42:53;;;;;;;14.07;11.75;;;12.60;92.40;;;;;;5114433;28;20070;-67
2021/06/01 00:45:21;;;;;;;14.05;11.50;;;12.60;92.40;;;;;;5114349;28;20466;-67
2021/06/01 00:47:47;;;;;;;13.57;11.40;;;12.50;92.50;;;;;;5096020;28;20076;-67
2021/06/01 00:50:15;;;;;;;15.38;11.48;;;12.50;92.70;;;;;;5114587;28;20489;-67
2021/06/01 00:52:41;;;;;;;14.95;12.52;;;12.40;92.90;;;;;;5114144;28;20555;-67
2021/06/01 00:55:07;;;;;;;13.85;11.43;;;12.40;93.00;;;;;;5114102;28;20059;-67
2021/06/01 00:57:34;;;;;;;14.23;11.90;;;12.40;92.80;;;;;;5114185;28;20051;-67
2021/06/01 01:00:06;;;;;;;14.70;12.13;;;12.40;92.80;;;;;;5114046;28;20117;-67
2021/06/01 01:02:31;;;;;;;14.20;11.77;;;12.40;92.80;;;;;;5113969;28;20074;-67
2021/06/01 01:04:58;;;;;;;14.45;12.23;;;12.30;93.10;;;;;;5113812;28;20126;-67
2021/06/01 01:07:37;;;;;;;15.20;12.60;;;12.30;93.30;;;;;;5113953;28;20114;-67
2021/06/01 01:10:03;;;;;;;14.23;12.43;;;12.20;93.40;;;;;;5113695;28;20036;-67
2021/06/01 01:12:37;;;;;;;14.45;12.48;;;12.20;93.50;;;;;;5113909;28;20121;-67
2021/06/01 01:15:05;;;;;;;14.82;11.45;;;12.20;93.50;;;;;;5114100;28;20426;-68
2021/06/01 01:17:45;;;;;;;15.20;11.88;;;12.10;93.40;;;;;;5113687;28;20442;-67
2021/06/01 01:20:30;;;;;;;15.90;11.60;;;12.10;93.40;;;;;;5095414;28;20039;-67
2021/06/01 01:22:58;;;;;;;15.13;11.85;;;12.10;93.30;;;;;;5113643;28;20488;-67
2021/06/01 01:25:41;;;;;;;12.00;10.80;;;12.10;93.40;;;;;;5113502;28;20489;-67
2021/06/01 01:28:27;;;;;;;16.65;12.57;;;12.10;93.50;;;;;;5113802;28;20043;-68
2021/06/01 01:30:57;;;;;;;12.38;10.68;;;12.00;93.60;;;;;;5113292;28;20040;-67
2021/06/01 01:33:27;;;;;;;15.68;12.32;;;12.00;93.50;;;;;;5113465;28;20066;-67
2021/06/01 01:36:00;;;;;;;16.73;13.02;;;11.90;93.70;;;;;;5077536;28;20044;-67
2021/06/01 01:38:27;;;;;;;16.60;13.43;;;11.90;93.90;;;;;;5113327;28;20558;-67
2021/06/01 01:40:57;;;;;;;15.48;13.13;;;11.80;94.20;;;;;;5094716;28;20051;-67
2021/06/01 01:43:25;;;;;;;16.60;13.93;;;11.70;94.50;;;;;;5113261;28;20188;-67
2021/06/01 01:46:00;;;;;;;17.48;13.65;;;11.70;94.60;;;;;;5113075;28;20424;-67
2021/06/01 01:51:12;;;;;;;16.02;13.38;;;11.60;94.60;;;;;;5113041;28;20043;-67
2021/06/01 01:53:47;;;;;;;16.02;13.02;;;11.60;94.40;;;;;;5113025;28;20490;-67
2021/06/01 01:56:14;;;;;;;17.70;13.30;;;11.60;94.40;;;;;;5112887;28;20059;-67
2021/06/01 01:58:40;;;;;;;17.35;13.15;;;11.60;94.50;;;;;;5112921;28;20114;-66
2021/06/01 02:01:05;;;;;;;16.55;12.93;;;11.60;94.50;;;;;;5112817;28;20035;-67
2021/06/01 02:03:31;;;;;;;15.00;12.88;;;11.70;94.50;;;;;;5112763;28;20059;-67
2021/06/01 02:05:58;;;;;;;15.85;12.80;;;11.70;94.40;;;;;;5112750;28;20443;-66
2021/06/01 02:08:24;;;;;;;17.30;13.20;;;11.50;94.60;;;;;;5112730;28;20040;-66
2021/06/01 02:10:50;;;;;;;15.18;13.20;;;11.50;94.70;;;;;;5112637;28;20092;-67
2021/06/01 02:13:15;;;;;;;16.27;13.65;;;11.50;94.70;;;;;;5112589;28;20050;-67
2021/06/01 02:15:41;;;;;;;15.02;12.85;;;11.50;94.70;;;;;;5112484;28;20047;-67
2021/06/01 02:18:07;;;;;;;16.67;13.38;;;11.40;94.80;;;;;;5112770;28;20614;-67
2021/06/01 02:20:33;;;;;;;16.38;13.10;;;11.40;94.70;;;;;;5112376;28;20469;-67
2021/06/01 02:25:55;;;;;;;15.05;12.38;;;11.40;94.80;;;;;;5112330;28;20169;-67
2021/06/01 02:28:27;;;;;;;18.23;13.55;;;11.40;94.40;;;;;;5112691;28;20031;-67
2021/06/01 02:31:02;;;;;;;16.88;14.00;;;11.30;94.80;;;;;;5112164;28;20032;-67
2021/06/01 02:33:31;;;;;;;16.67;13.68;;;11.30;95.30;;;;;;5094114;28;20353;-67
2021/06/01 02:36:00;;;;;;;16.60;13.38;;;11.20;95.30;;;;;;5112072;28;20051;-67
2021/06/01 02:38:29;;;;;;;17.95;13.10;;;11.20;95.20;;;;;;5112156;28;20525;-67
2021/06/01 02:40:55;;;;;;;17.33;13.38;;;11.10;95.40;;;;;;5111845;28;20054;-67
2021/06/01 02:43:21;;;;;;;17.35;13.90;;;11.10;95.40;;;;;;5112061;28;20279;-67
2021/06/01 02:45:48;;;;;;;17.42;14.40;;;11.10;95.40;;;;;;5111597;28;20032;-67
2021/06/01 02:48:19;;;;;;;16.83;13.60;;;11.10;95.50;;;;;;5111350;28;20126;-67
2021/06/01 02:50:47;;;;;;;16.95;13.27;;;11.10;95.60;;;;;;5111832;28;20423;-67
2021/06/01 02:53:13;;;;;;;15.85;13.73;;;11.00;95.70;;;;;;5111712;28;20035;-67
2021/06/01 02:55:40;;;;;;;19.15;13.57;;;11.00;95.60;;;;;;5111604;28;20035;-67
2021/06/01 02:58:07;;;;;;;16.58;13.32;;;11.00;95.70;;;;;;5111769;28;20039;-68
2021/06/01 03:00:35;;;;;;;15.07;13.48;;;11.00;95.80;;;;;;5093274;28;20472;-67
2021/06/01 03:03:09;;;;;;;17.50;14.35;;;11.00;95.90;;;;;;5111616;28;20130;-67
2021/06/01 03:05:35;;;;;;;17.27;13.95;;;10.90;96.00;;;;;;5111483;28;20047;-67
2021/06/01 03:08:13;;;;;;;17.38;14.55;;;10.90;96.10;;;;;;5111575;28;20509;-67
2021/06/01 03:10:39;;;;;;;18.33;14.85;;;10.90;96.20;;;;;;5111423;28;20044;-67
2021/06/01 03:13:05;;;;;;;18.95;13.93;;;10.90;96.20;;;;;;5111446;28;20040;-67
2021/06/01 03:15:30;;;;;;;20.30;14.52;;;10.90;96.20;;;;;;5111280;28;20051;-67
2021/06/01 03:17:57;;;;;;;16.90;14.70;;;10.90;96.10;;;;;;5111781;28;20035;-67
2021/06/01 03:20:23;;;;;;;17.98;14.70;;;10.90;96.00;;;;;;5111113;28;20039;-67
2021/06/01 03:22:49;;;;;;;18.20;15.02;;;10.90;96.10;;;;;;5110855;28;20138;-67
2021/06/01 03:25:15;;;;;;;18.33;15.40;;;10.90;95.80;;;;;;5110928;28;20051;-67
2021/06/01 03:27:41;;;;;;;18.88;15.43;;;10.90;95.90;;;;;;5110808;28;20040;-67
2021/06/01 03:30:10;;;;;;;18.77;13.88;;;10.90;95.80;;;;;;5111145;28;20039;-67
2021/06/01 03:32:35;;;;;;;19.70;15.73;;;10.90;95.80;;;;;;5110905;28;20405;-67
2021/06/01 03:35:01;;;;;;;19.50;15.73;;;10.90;96.00;;;;;;5092747;28;20043;-67
2021/06/01 03:37:26;;;;;;;18.00;13.95;;;11.00;96.00;;;;;;5111207;28;20036;-67
2021/06/01 03:39:52;;;;;;;18.67;14.43;;;11.00;95.90;;;;;;5110786;28;20048;-67
2021/06/01 03:42:19;;;;;;;16.42;14.02;;;11.00;95.70;;;;;;5110848;28;20047;-67
2021/06/01 03:44:45;;;;;;;17.75;14.10;;;10.90;95.70;;;;;;5110873;28;20488;-67
2021/06/01 03:47:11;;;;;;;18.42;13.95;;;11.00;95.70;;;;;;5110739;28;20035;-67
2021/06/01 03:49:37;;;;;;;18.17;14.20;;;11.00;95.70;;;;;;5092647;28;20039;-67
2021/06/01 03:52:08;;;;;;;25.45;16.45;;;10.90;96.30;;;;;;5092367;28;20039;-66
2021/06/01 03:54:37;;;;;;;22.45;16.35;;;10.90;96.20;;;;;;5110772;28;20050;-67
2021/06/01 03:57:04;;;;;;;20.65;15.93;;;10.90;96.50;;;;;;5092427;28;20089;-67
2021/06/01 03:59:30;;;;;;;18.38;14.32;;;11.00;96.50;;;;;;5110464;28;20507;-67
2021/06/01 04:01:56;;;;;;;18.98;14.93;;;11.00;96.00;;;;;;5092374;28;20047;-67
2021/06/01 04:04:21;;;;;;;17.38;14.50;;;11.00;96.00;;;;;;5110661;28;20035;-66
2021/06/01 04:06:47;;;;;;;19.15;15.70;;;11.10;95.70;;;;;;5110674;28;20042;-67
2021/06/01 04:09:13;;;;;;;17.90;15.77;;;11.10;96.00;;;;;;5110579;28;20047;-67
2021/06/01 04:11:39;;;;;;;18.58;15.85;;;11.10;95.70;;;;;;5110536;28;20036;-67
2021/06/01 04:14:05;;;;;;;19.52;16.10;;;11.10;96.20;;;;;;5092404;28;20487;-67
2021/06/01 04:16:31;;;;;;;17.58;14.85;;;11.10;96.00;;;;;;5110403;28;20565;-67
2021/06/01 04:18:57;;;;;;;20.33;16.65;;;11.20;96.10;;;;;;5111021;28;20031;-67
2021/06/01 04:21:22;;;;;;;22.35;17.13;;;11.20;96.30;;;;;;5092496;28;20077;-67
2021/06/01 04:23:48;;;;;;;18.63;16.00;;;11.20;96.30;;;;;;5110368;28;20100;-67
2021/06/01 04:26:13;;;;;;;19.90;16.90;;;11.30;96.20;;;;;;5110484;28;20039;-67
2021/06/01 04:28:41;;;;;;;18.90;16.88;;;11.30;96.20;;;;;;5110383;28;20043;-67
2021/06/01 04:31:15;;;;;;;20.70;17.02;;;11.40;96.40;;;;;;5110368;28;20036;-67
2021/06/01 04:33:41;;;;;;;21.85;16.48;;;11.40;96.10;;;;;;5110275;28;20044;-67
2021/06/01 04:36:06;;;;;;;21.08;17.25;;;11.50;96.20;;;;;;5110375;28;20039;-67
2021/06/01 04:38:32;;;;;;;20.20;17.80;;;11.60;96.10;;;;;;5110145;28;20039;-67
2021/06/01 04:40:58;;;;;;;20.48;16.95;;;11.70;96.20;;;;;;5110255;28;20047;-67
2021/06/01 04:43:23;;;;;;;20.08;15.27;;;11.70;95.90;;;;;;5110234;28;20039;-67
2021/06/01 04:45:49;;;;;;;20.10;16.75;;;11.80;95.80;;;;;;5092007;28;20039;-67
2021/06/01 04:48:14;;;;;;;23.23;16.90;;;11.90;95.80;;;;;;5110208;28;20081;-67
2021/06/01 04:50:40;;;;;;;17.55;15.48;;;12.00;95.80;;;;;;5110396;28;20063;-67
2021/06/01 04:53:06;;;;;;;20.88;16.75;;;12.10;95.70;;;;;;5092027;28;20251;-67
2021/06/01 04:55:32;;;;;;;21.38;17.20;;;12.20;95.70;;;;;;5110247;28;20436;-67
2021/06/01 04:57:57;;;;;;;20.10;16.70;;;12.20;95.50;;;;;;5110123;28;20036;-67
2021/06/01 05:00:23;;;;;;;19.20;16.08;;;12.30;95.40;;;;;;5110163;28;20062;-67
2021/06/01 05:02:49;;;;;;;19.70;15.70;;;12.50;95.20;;;;;;5091881;28;20066;-67
2021/06/01 05:05:15;;;;;;;20.48;16.40;;;12.50;94.90;;;;;;5110203;28;20036;-67
2021/06/01 05:07:40;;;;;;;20.40;15.73;;;12.60;94.90;;;;;;5110032;28;20504;-67
2021/06/01 05:10:08;;;;;;;17.10;15.20;;;12.70;94.30;;;;;;5111473;28;20113;-67
2021/06/01 05:12:34;;;;;;;18.33;14.73;;;12.80;94.30;;;;;;5113632;28;20530;-67
2021/06/01 05:14:59;;;;;;;21.23;15.57;;;12.90;93.90;;;;;;5113779;28;20043;-67
2021/06/01 05:17:25;;;;;;;19.08;15.50;;;13.00;93.70;;;;;;5095617;28;20491;-68
2021/06/01 05:19:51;;;;;;;16.38;14.43;;;13.10;93.80;;;;;;5095309;28;20032;-67
2021/06/01 05:22:17;;;;;;;19.02;14.18;;;13.20;93.50;;;;;;5113822;28;20126;-67
2021/06/01 05:24:43;;;;;;;15.95;13.98;;;13.30;93.50;;;;;;5113465;28;20062;-68
2021/06/01 05:27:09;;;;;;;13.95;12.45;;;13.40;93.10;;;;;;5095542;28;20046;-68
2021/06/01 05:29:38;;;;;;;16.38;12.70;;;13.50;92.80;;;;;;5095045;28;20039;-67
2021/06/01 05:32:10;;;;;;;14.93;11.98;;;13.60;92.50;;;;;;5113366;28;20473;-66
2021/06/01 05:34:37;;;;;;;16.58;10.98;;;13.80;92.10;;;;;;5095156;28;20036;-67
2021/06/01 05:37:04;;;;;;;13.35;12.00;;;14.00;91.10;;;;;;5113234;28;20096;-67
2021/06/01 05:39:30;;;;;;;12.88;11.55;;;14.20;91.20;;;;;;5112997;28;20052;-66
2021/06/01 05:41:55;;;;;;;13.88;11.10;;;14.30;91.10;;;;;;5094897;28;20051;-66
2021/06/01 05:44:21;;;;;;;13.63;11.57;;;14.40;90.80;;;;;;5113161;28;20093;-66
2021/06/01 05:46:47;;;;;;;11.98;10.77;;;14.70;90.80;;;;;;5094897;28;20073;-66
2021/06/01 05:49:13;;;;;;;11.45;9.98;;;15.80;87.60;;;;;;5112903;28;20088;-67
2021/06/01 05:51:38;;;;;;;11.25;10.18;;;17.60;81.90;;;;;;5113042;28;20149;-67
2021/06/01 05:54:06;;;;;;;11.73;9.27;;;19.30;77.20;;;;;;5112844;28;20040;-67
2021/06/01 05:56:32;;;;;;;10.90;8.90;;;20.70;72.90;;;;;;5112911;28;20088;-67
2021/06/01 05:58:58;;;;;;;9.35;8.40;;;22.00;70.90;;;;;;5112902;28;20460;-67
2021/06/01 06:01:23;;;;;;;9.18;8.07;;;23.00;66.40;;;;;;5112916;28;20084;-67
2021/06/01 06:03:49;;;;;;;9.13;8.20;;;23.80;61.20;;;;;;5112785;28;20028;-67
2021/06/01 06:06:15;;;;;;;9.65;8.65;;;24.30;55.80;;;;;;5094499;28;20043;-67
2021/06/01 06:08:42;;;;;;;8.10;7.30;;;24.50;52.10;;;;;;5112685;28;20386;-67
2021/06/01 06:11:08;;;;;;;7.90;7.20;;;25.50;58.40;;;;;;5112466;28;20540;-67
2021/06/01 06:13:36;;;;;;;10.07;7.05;;;26.20;50.00;;;;;;5094245;28;20127;-67
2021/06/01 06:16:01;;;;;;;7.88;7.10;;;26.40;50.00;;;;;;5112608;28;20065;-67
2021/06/01 06:18:30;;;;;;;7.63;6.55;;;27.20;53.60;;;;;;5112676;28;20036;-67
2021/06/01 06:21:05;;;;;;;7.28;6.57;;;27.90;49.50;;;;;;5112203;28;20067;-67
2021/06/01 06:23:33;;;;;;;7.78;7.07;;;28.50;41.30;;;;;;5094053;28;20046;-67
2021/06/01 06:26:00;;;;;;;6.65;5.95;;;28.50;40.70;;;;;;5112314;28;20047;-67
2021/06/01 06:28:26;;;;;;;7.38;6.45;;;28.60;43.70;;;;;;5112306;28;20074;-66
2021/06/01 06:30:51;;;;;;;8.35;6.53;;;28.50;42.00;;;;;;5112442;28;20067;-66
2021/06/01 06:33:17;;;;;;;6.60;5.78;;;28.80;42.00;;;;;;5112278;28;20477;-68
2021/06/01 06:35:43;;;;;;;6.28;5.78;;;29.30;42.50;;;;;;5112084;28;20054;-67
2021/06/01 06:38:08;;;;;;;6.38;5.75;;;29.60;39.50;;;;;;5112095;28;20461;-67
2021/06/01 06:40:34;;;;;;;6.82;6.22;;;30.10;38.70;;;;;;5111759;28;20040;-67
2021/06/01 06:43:01;;;;;;;6.55;5.95;;;30.50;41.80;;;;;;5093931;28;20058;-67
2021/06/01 06:45:30;;;;;;;6.00;5.00;;;30.90;39.40;;;;;;5111922;28;20036;-67
2021/06/01 06:48:04;;;;;;;5.82;5.25;;;30.50;40.00;;;;;;5111925;28;20034;-68
2021/06/01 06:50:31;;;;;;;6.65;6.07;;;30.70;33.70;;;;;;5111829;28;20523;-67
2021/06/01 06:52:57;;;;;;;6.68;5.97;;;30.10;37.20;;;;;;5111800;28;20032;-67
2021/06/01 06:55:25;;;;;;;5.57;5.07;;;29.80;37.70;;;;;;5093800;28;20075;-67
2021/06/01 06:57:52;;;;;;;6.22;5.72;;;30.00;38.50;;;;;;5111881;28;20035;-66
2021/06/01 07:00:23;;;;;;;6.70;5.43;;;29.70;34.90;;;;;;5111569;28;20040;-67
2021/06/01 07:02:49;;;;;;;6.50;5.75;;;29.40;38.50;;;;;;5111755;28;20039;-67
2021/06/01 07:05:18;;;;;;;6.30;5.70;;;29.60;35.80;;;;;;5093225;28;20055;-67
2021/06/01 07:07:46;;;;;;;6.82;5.95;;;29.50;37.20;;;;;;5111753;28;20450;-67
2021/06/01 07:10:13;;;;;;;7.25;5.55;;;29.70;36.10;;;;;;5111469;28;20043;-67
2021/06/01 07:12:42;;;;;;;7.03;5.75;;;29.50;37.80;;;;;;5111407;28;20723;-67
2021/06/01 07:15:26;;;;;;;6.90;6.20;;;29.80;39.40;;;;;;5111807;28;20039;-67
2021/06/01 07:17:59;;;;;;;7.20;6.50;;;29.60;35.80;;;;;;5111389;28;20035;-67
2021/06/01 07:20:30;;;;;;;6.10;5.40;;;29.40;36.40;;;;;;5111392;28;20362;-67
2021/06/01 07:22:57;;;;;;;6.68;4.57;;;29.50;37.00;;;;;;5111471;28;20032;-67
2021/06/01 07:25:29;;;;;;;7.43;4.90;;;30.00;36.70;;;;;;5111172;28;20038;-67
2021/06/01 07:28:15;;;;;;;4.82;4.43;;;30.30;37.30;;;;;;5096109;28;20392;-67
2021/06/01 07:30:42;;;;;;;5.05;4.57;;;31.20;39.10;;;;;;5111263;28;20033;-67
2021/06/01 07:33:08;;;;;;;5.53;3.97;;;31.30;35.10;;;;;;5092312;28;20473;-67
2021/06/01 07:35:35;;;;;;;4.95;4.53;;;31.20;35.60;;;;;;5111028;28;20046;-66
2021/06/01 07:38:05;;;;;;;4.22;3.88;;;30.60;36.90;;;;;;5111145;28;20038;-66
2021/06/01 07:40:32;;;;;;;4.55;4.03;;;30.70;36.70;;;;;;5110642;28;20047;-66
2021/06/01 07:43:02;;;;;;;5.43;3.72;;;29.80;33.70;;;;;;5111495;28;20078;-67
2021/06/01 07:45:32;;;;;;;3.58;3.28;;;29.90;33.00;;;;;;5110780;28;20446;-67
2021/06/01 07:48:00;;;;;;;3.50;3.20;;;30.20;35.40;;;;;;5110891;28;20114;-67
2021/06/01 07:50:27;;;;;;;4.28;3.90;;;30.60;33.70;;;;;;5110783;28;20054;-67
2021/06/01 07:52:55;;;;;;;4.15;3.75;;;30.00;30.80;;;;;;5093094;28;20108;-67
2021/06/01 07:55:22;;;;;;;4.18;3.60;;;30.40;35.20;;;;;;5110660;28;20081;-67
2021/06/01 07:57:48;;;;;;;3.38;3.08;;;30.90;35.70;;;;;;5110821;28;20046;-66
2021/06/01 08:00:21;;;;;;;5.40;2.85;;;30.70;31.00;;;;;;5110809;28;20074;-66
2021/06/01 08:02:47;;;;;;;3.35;3.00;;;30.30;31.00;;;;;;5111166;28;20476;-71
2021/06/01 08:05:15;;;;;;;4.55;3.00;;;29.80;31.50;;;;;;5076250;28;20468;-68
2021/06/01 08:07:41;;;;;;;3.03;2.80;;;29.40;35.70;;;;;;5111317;28;20122;-70
2021/06/01 08:10:08;;;;;;;4.60;2.92;;;27.80;31.00;;;;;;5110936;28;20127;-69
2021/06/01 08:12:40;;;;;;;3.42;2.80;;;27.30;35.50;;;;;;5110825;28;20083;-69
2021/06/01 08:15:07;;;;;;;3.55;3.00;;;26.90;36.40;;;;;;5110816;28;20051;-69
2021/06/01 08:17:33;;;;;;;3.53;2.40;;;26.20;36.90;;;;;;5110764;28;20392;-69
2021/06/01 08:20:10;;;;;;;2.97;2.33;;;25.40;33.00;;;;;;5110801;28;20134;-69
2021/06/01 08:22:37;;;;;;;2.70;2.50;;;25.00;35.10;;;;;;5110793;28;20047;-69
2021/06/01 08:25:07;;;;;;;3.60;2.17;;;24.40;35.40;;;;;;5093222;28;20035;-68
2021/06/01 08:27:33;;;;;;;4.07;2.17;;;24.20;36.90;;;;;;5110654;28;20036;-69
2021/06/01 08:29:58;;;;;;;2.70;1.65;;;24.30;41.20;;;;;;5110584;28;20035;-69
2021/06/01 08:32:25;;;;;;;3.60;2.03;;;24.30;39.30;;;;;;5110987;28;20063;-68
2021/06/01 08:34:51;;;;;;;2.30;2.10;;;24.10;37.60;;;;;;5110567;28;20048;-68
2021/06/01 08:37:17;;;;;;;2.20;2.03;;;24.00;38.20;;;;;;5110446;28;20035;-69
2021/06/01 08:39:43;;;;;;;3.70;2.10;;;23.90;36.00;;;;;;5110409;28;20043;-68
2021/06/01 08:42:09;;;;;;;2.50;2.10;;;23.70;39.40;;;;;;5110365;28;20567;-68
2021/06/01 08:44:35;;;;;;;1.95;1.80;;;23.40;36.10;;;;;;5110790;28;20039;-68
2021/06/01 08:47:01;;;;;;;3.63;2.33;;;23.40;40.10;;;;;;5114337;28;20093;-68
2021/06/01 08:49:27;;;;;;;2.25;2.05;;;23.30;39.20;;;;;;5114338;28;20040;-68
2021/06/01 08:51:53;;;;;;;3.15;2.33;;;23.50;39.90;;;;;;5095983;28;20036;-65
2021/06/01 08:54:19;;;;;;;4.85;2.10;;;23.50;39.00;;;;;;5114904;22;20060;-66
2021/06/01 08:56:45;;;;;;;3.67;1.83;;;23.40;40.40;;;;;;5093596;28;20035;-68
2021/06/01 08:59:12;;;;;;;4.13;2.08;;;23.50;42.10;;;;;;5093664;28;20344;-68
2021/06/01 09:01:38;;;;;;;4.13;2.28;;;23.50;38.20;;;;;;5093536;28;20047;-67
2021/06/01 09:04:09;;;;;;;3.22;2.88;;;23.60;41.00;;;;;;5093939;28;20040;-66
2021/06/01 09:06:44;;;;;;;3.95;1.65;;;23.70;42.50;;;;;;5093440;28;20043;-66
2021/06/01 09:22:58;;;;;;;2.40;2.20;;;23.70;42.00;;;;;;5092989;28;20036;-66
2021/06/01 09:25:43;;;;;;;4.80;2.20;;;23.60;40.00;;;;;;5093018;28;20508;-66
2021/06/01 09:28:11;;;;;;;3.60;2.28;;;23.50;38.20;;;;;;5092933;28;20039;-66
2021/06/01 09:30:42;;;;;;;2.65;2.00;;;23.50;39.50;;;;;;5092971;28;20067;-67
2021/06/01 09:33:17;;;;;;;2.97;2.40;;;23.60;42.00;;;;;;5092845;28;20351;-66
2021/06/01 09:35:48;;;;;;;3.03;2.15;;;23.70;42.00;;;;;;5093168;28;20036;-66
2021/06/01 09:38:15;;;;;;;5.57;2.42;;;23.70;43.30;;;;;;5092824;28;20059;-66
2021/06/01 09:40:42;;;;;;;3.42;2.47;;;23.80;40.10;;;;;;5092907;28;20382;-66
2021/06/01 09:43:10;;;;;;;3.55;2.22;;;23.70;42.00;;;;;;5092742;28;20370;-66
2021/06/01 09:45:36;;;;;;;3.47;2.45;;;23.80;42.40;;;;;;5092734;28;20041;-66
2021/06/01 09:48:05;;;;;;;2.83;2.42;;;23.80;41.20;;;;;;5092890;28;20477;-66
2021/06/01 09:53:24;;;;;;;2.90;2.60;;;24.00;42.20;;;;;;5092651;28;20040;-66
2021/06/01 09:55:50;;;;;;;2.80;2.50;;;23.80;37.30;;;;;;5091961;28;20055;-66
2021/06/01 09:58:24;;;;;;;3.83;2.40;;;23.70;37.20;;;;;;5074338;28;20044;-66
2021/06/01 10:00:50;;;;;;;3.50;2.38;;;23.90;47.30;;;;;;5092524;28;20036;-66
2021/06/01 10:03:20;;;;;;;3.35;2.42;;;24.00;42.80;;;;;;5092436;28;20040;-66
2021/06/01 10:05:51;;;;;;;2.97;2.50;;;24.10;43.10;;;;;;5092830;28;20075;-66
2021/06/01 10:08:19;;;;;;;3.20;2.40;;;24.00;42.40;;;;;;5092316;28;20046;-66
2021/06/01 10:11:04;;;;;;;3.47;2.42;;;24.10;46.50;;;;;;5092441;28;20116;-66
2021/06/01 10:13:33;;;;;;;3.95;2.38;;;24.20;41.00;;;;;;5092240;28;20040;-67
2021/06/01 10:16:01;;;;;;;3.60;2.50;;;24.30;44.20;;;;;;5092288;28;20040;-66
2021/06/01 10:18:30;;;;;;;3.25;2.40;;;24.20;40.80;;;;;;5092110;28;20097;-65
2021/06/01 10:21:06;;;;;;;4.07;2.38;;;24.20;38.50;;;;;;5092187;28;20433;-66
2021/06/01 10:23:37;;;;;;;2.67;2.28;;;24.40;42.40;;;;;;5073923;28;20123;-67
2021/06/01 10:26:05;;;;;;;4.03;2.47;;;24.40;41.10;;;;;;5073948;28;20058;-67
2021/06/01 10:30:57;;;;;;;3.40;2.40;;;24.10;38.80;;;;;;5091862;28;20071;-66
2021/06/01 10:33:25;;;;;;;2.95;2.28;;;24.30;43.40;;;;;;5073648;28;20316;-66
2021/06/01 10:36:04;;;;;;;2.83;2.50;;;24.40;39.30;;;;;;5091844;28;20039;-66
2021/06/01 10:52:26;;;;;;;3.28;2.42;;;24.80;38.60;;;;;;5091443;28;20036;-66
2021/06/01 10:54:58;;;;;;;2.85;2.65;;;24.80;39.90;;;;;;5091265;28;20052;-66
2021/06/01 10:57:59;;;;;;;2.63;2.35;;;25.00;45.10;;;;;;5091485;28;20093;-66
2021/06/01 11:03:21;;;;;;;2.45;2.25;;;25.00;42.70;;;;;;5091427;28;20493;-66
2021/06/01 11:05:56;;;;;;;5.72;2.85;;;24.90;39.50;;;;;;5073093;28;20096;-66
2021/06/01 11:08:35;;;;;;;2.83;2.53;;;25.00;40.20;;;;;;5090485;28;20070;-66
2021/06/01 11:11:23;;;;;;;2.80;2.58;;;24.90;37.10;;;;;;5091190;28;20062;-66
2021/06/01 11:13:52;;;;;;;2.53;2.22;;;25.00;42.30;;;;;;5090943;28;20315;-66
2021/06/01 11:16:18;;;;;;;3.25;2.40;;;25.20;43.70;;;;;;5073011;28;20036;-66
2021/06/01 11:18:52;;;;;;;4.50;2.53;;;25.10;39.30;;;;;;5090941;28;20395;-67
2021/06/01 11:21:30;;;;;;;4.07;2.22;;;25.20;39.10;;;;;;5073040;28;20040;-67
2021/06/01 11:35:45;;;;;;;2.95;2.38;;;25.30;35.00;;;;;;5090736;28;20040;-66
2021/06/01 11:38:19;;;;;;;4.82;2.33;;;25.00;35.60;;;;;;5090731;28;20032;-67
2021/06/01 11:43:34;;;;;;;3.03;2.47;;;25.20;38.00;;;;;;5090723;28;20342;-66
2021/06/01 11:46:09;;;;;;;3.75;2.80;;;25.30;40.20;;;;;;5090547;28;20032;-66
2021/06/01 11:51:28;;;;;;;2.65;2.42;;;25.30;38.60;;;;;;5090547;28;20074;-66
2021/06/01 11:54:08;;;;;;;3.28;2.60;;;25.50;39.50;;;;;;5090404;28;20048;-67
2021/06/01 11:56:36;;;;;;;3.90;2.50;;;25.40;37.10;;;;;;5090455;28;20039;-66
2021/06/01 12:04:36;;;;;;;4.20;2.90;;;25.70;44.00;;;;;;5090485;28;20427;-66
2021/06/01 12:18:15;;;;;;;2.72;2.50;;;25.80;45.70;;;;;;5090476;28;20119;-67
2021/06/01 12:20:41;;;;;;;3.38;2.83;;;25.90;46.30;;;;;;5094237;28;20131;-67
2021/06/01 12:23:35;;;;;;;3.05;2.70;;;26.00;45.30;;;;;;5094486;28;20036;-67
2021/06/01 12:26:08;;;;;;;2.33;2.13;;;26.00;45.40;;;;;;5076140;28;20435;-67
2021/06/01 12:31:23;;;;;;;3.50;2.70;;;26.10;47.00;;;;;;5094161;28;20385;-67
2021/06/01 12:34:00;;;;;;;3.72;2.65;;;26.10;42.70;;;;;;5094370;28;20097;-67
2021/06/01 12:37:26;;;;;;;2.80;2.20;;;26.30;44.30;;;;;;5093992;28;20067;-66
2021/06/01 12:44:57;;;;;;;4.05;2.70;;;26.00;37.60;;;;;;5094035;28;20089;-67
2021/06/01 13:12:27;;;;;;;3.85;2.92;;;26.40;40.00;;;;;;5093251;28;20309;-66
2021/06/01 13:20:35;;;;;;;3.83;2.95;;;26.20;44.40;;;;;;5093355;28;20459;-66
2021/06/01 13:36:58;;;;;;;4.55;2.95;;;26.50;42.60;;;;;;5092932;28;20044;-67
2021/06/01 13:47:17;;;;;;;4.68;3.90;;;26.90;43.50;;;;;;5092748;28;20048;-66
2021/06/01 13:49:46;;;;;;;5.55;3.50;;;26.80;42.00;;;;;;5092805;28;20039;-66
2021/06/01 13:57:46;;;;;;;3.30;3.00;;;26.80;43.10;;;;;;5092564;28;20311;-67
2021/06/01 14:09:26;;;;;;;8.63;3.47;;;26.70;40.90;;;;;;5046288;28;20405;-66
2021/06/01 14:19:26;;;;;;;3.58;3.28;;;26.70;38.20;;;;;;5092358;28;20409;-66
2021/06/01 15:03:51;;;;;;;3.30;3.00;;;26.90;38.90;;;;;;5092039;28;20063;-68
2021/06/01 15:52:03;;;;;;;6.47;2.78;;;26.40;45.90;;;;;;5091082;28;20040;-68
2021/06/01 17:05:34;;;;;;;4.38;3.97;;;25.90;45.90;;;;;;5051115;28;20083;-68
2021/06/01 17:11:16;;;;;;;4.28;3.50;;;25.90;44.60;;;;;;5093877;28;20114;-67
2021/06/01 17:13:48;;;;;;;4.03;3.65;;;25.90;47.30;;;;;;5093621;28;20405;-67
2021/06/01 17:16:49;;;;;;;4.22;3.83;;;25.90;44.10;;;;;;5058938;28;20397;-67
2021/06/01 17:35:34;;;;;;;6.95;5.43;;;23.70;53.50;;;;;;5093286;28;20044;-69
2021/06/01 17:38:04;;;;;;;6.15;4.30;;;23.80;54.20;;;;;;5075061;28;20047;-68
2021/06/01 17:40:30;;;;;;;6.90;5.10;;;23.60;53.90;;;;;;5093056;28;20054;-69
2021/06/01 17:43:02;;;;;;;7.13;4.93;;;23.50;54.70;;;;;;5075059;28;20076;-68
2021/06/01 17:45:32;;;;;;;6.65;4.78;;;23.60;56.80;;;;;;5093272;28;20123;-69
2021/06/01 17:48:04;;;;;;;6.45;4.50;;;23.50;56.10;;;;;;5093108;28;20059;-69
2021/06/01 17:50:30;;;;;;;5.10;4.60;;;23.40;55.40;;;;;;5092975;28;20036;-69
2021/06/01 17:52:58;;;;;;;5.50;4.18;;;23.20;56.10;;;;;;5092975;28;20443;-69
2021/06/01 17:55:25;;;;;;;4.93;4.50;;;23.30;57.10;;;;;;5092746;28;20051;-69
2021/06/01 17:57:52;;;;;;;6.28;4.70;;;23.30;55.40;;;;;;5092853;28;20036;-69
2021/06/01 18:00:20;;;;;;;6.22;4.93;;;23.00;54.50;;;;;;5092758;28;20403;-69
2021/06/01 18:02:50;;;;;;;6.10;4.72;;;23.00;55.00;;;;;;5074904;28;20105;-70
2021/06/01 18:05:18;;;;;;;5.20;4.72;;;22.70;55.30;;;;;;5074497;28;20064;-68
2021/06/01 18:08:01;;;;;;;6.05;4.65;;;22.60;56.30;;;;;;5092557;28;20036;-69
2021/06/01 18:35:26;;;;;;;6.60;4.43;;;21.70;59.10;;;;;;5092299;28;20032;-67
2021/06/01 19:06:04;;;;;;;6.47;5.55;;;20.50;64.10;;;;;;5091467;28;20039;-68
2021/06/01 19:25:06;;;;;;;5.88;5.25;;;19.80;71.10;;;;;;5091176;28;20431;-70
2021/06/01 19:50:13;;;;;;;7.97;5.40;;;18.60;73.70;;;;;;5090430;28;20115;-68
2021/06/01 19:52:44;;;;;;;6.78;4.85;;;18.50;69.90;;;;;;5090422;28;20044;-68
2021/06/01 19:55:11;;;;;;;5.72;5.15;;;18.40;70.90;;;;;;5090505;28;20078;-71